sensor_id;sensor_type;location;lat;lon;timestamp;temperature;humidity
21090;DHT22;10703;51.020;6.128;2022-12-05T00:03:55;2.40;99.90
21090;DHT22;10703;51.020;6.128;2022-12-05T00:06:23;2.30;99.90
21090;DHT22;10703;51.020;6.128;2022-12-05T00:08:50;2.30;99.90
21090;DHT22;10703;51.020;6.128;2022-12-05T00:11:19;2.30;99.90
21090;DHT22;10703;51.020;6.128;2022-12-05T00:13:47;2.30;99.90
21090;DHT22;10703;51.020;6.128;2022-12-05T00:16:16;2.30;99.90
21090;DHT22;10703;51.020;6.128;2022-12-05T00:18:44;2.30;99.90
21090;DHT22;10703;51.020;6.128;2022-12-05T00:21:12;2.30;99.90
21090;DHT22;10703;51.020;6.128;2022-12-05T00:23:40;2.30;99.90
21090;DHT22;10703;51.020;6.128;2022-12-05T00:26:07;2.30;99.90
21090;DHT22;10703;51.020;6.128;2022-12-05T00:28:34;2.30;99.90
21090;DHT22;10703;51.020;6.128;2022-12-05T00:31:02;2.30;99.90
21090;DHT22;10703;51.020;6.128;2022-12-05T00:33:29;2.30;99.90
21090;DHT22;10703;51.020;6.128;2022-12-05T00:36:04;2.40;99.90
21090;DHT22;10703;51.020;6.128;2022-12-05T00:38:31;2.40;99.90
21090;DHT22;10703;51.020;6.128;2022-12-05T00:41:06;2.40;99.90
21090;DHT22;10703;51.020;6.128;2022-12-05T00:43:33;2.40;99.90
21090;DHT22;10703;51.020;6.128;2022-12-05T00:46:01;2.40;99.90
21090;DHT22;10703;51.020;6.128;2022-12-05T00:48:29;2.40;99.90
21090;DHT22;10703;51.020;6.128;2022-12-05T00:51:04;2.40;99.90
21090;DHT22;10703;51.020;6.128;2022-12-05T00:53:31;2.40;99.90
21090;DHT22;10703;51.020;6.128;2022-12-05T00:56:07;2.30;99.90
21090;DHT22;10703;51.020;6.128;2022-12-05T00:58:34;2.40;99.90
21090;DHT22;10703;51.020;6.128;2022-12-05T01:01:10;2.40;99.90
21090;DHT22;10703;51.020;6.128;2022-12-05T01:03:37;2.40;99.90
21090;DHT22;10703;51.020;6.128;2022-12-05T01:06:04;2.40;99.90
21090;DHT22;10703;51.020;6.128;2022-12-05T01:08:33;2.40;99.90
21090;DHT22;10703;51.020;6.128;2022-12-05T01:11:00;2.40;99.90
21090;DHT22;10703;51.020;6.128;2022-12-05T01:13:27;2.40;99.90
21090;DHT22;10703;51.020;6.128;2022-12-05T01:15:55;2.40;99.90
21090;DHT22;10703;51.020;6.128;2022-12-05T01:18:22;2.40;99.90
21090;DHT22;10703;51.020;6.128;2022-12-05T01:20:50;2.30;99.90
21090;DHT22;10703;51.020;6.128;2022-12-05T01:23:17;2.40;99.90
21090;DHT22;10703;51.020;6.128;2022-12-05T01:25:46;2.40;99.90
21090;DHT22;10703;51.020;6.128;2022-12-05T01:28:14;2.40;99.90
21090;DHT22;10703;51.020;6.128;2022-12-05T01:30:43;2.40;99.90
21090;DHT22;10703;51.020;6.128;2022-12-05T01:33:10;2.40;99.90
21090;DHT22;10703;51.020;6.128;2022-12-05T01:35:38;2.40;99.90
21090;DHT22;10703;51.020;6.128;2022-12-05T01:38:06;2.40;99.90
21090;DHT22;10703;51.020;6.128;2022-12-05T01:40:34;2.40;99.90
21090;DHT22;10703;51.020;6.128;2022-12-05T01:43:09;2.40;99.90
21090;DHT22;10703;51.020;6.128;2022-12-05T01:45:41;2.40;99.90
21090;DHT22;10703;51.020;6.128;2022-12-05T01:48:18;2.40;99.90
21090;DHT22;10703;51.020;6.128;2022-12-05T01:50:47;2.40;99.90
21090;DHT22;10703;51.020;6.128;2022-12-05T01:53:15;2.40;99.90
21090;DHT22;10703;51.020;6.128;2022-12-05T01:55:43;2.40;99.90
21090;DHT22;10703;51.020;6.128;2022-12-05T01:58:10;2.40;99.90
21090;DHT22;10703;51.020;6.128;2022-12-05T02:00:38;2.40;99.90
21090;DHT22;10703;51.020;6.128;2022-12-05T02:03:10;2.40;99.90
21090;DHT22;10703;51.020;6.128;2022-12-05T02:05:39;2.40;99.90
21090;DHT22;10703;51.020;6.128;2022-12-05T02:08:08;2.50;99.90
21090;DHT22;10703;51.020;6.128;2022-12-05T02:10:46;2.40;99.90
21090;DHT22;10703;51.020;6.128;2022-12-05T02:16:11;2.40;99.90
21090;DHT22;10703;51.020;6.128;2022-12-05T02:26:55;2.40;99.90
21090;DHT22;10703;51.020;6.128;2022-12-05T02:29:52;2.40;99.90
21090;DHT22;10703;51.020;6.128;2022-12-05T02:32:45;2.40;99.90
21090;DHT22;10703;51.020;6.128;2022-12-05T02:35:15;2.40;99.90
21090;DHT22;10703;51.020;6.128;2022-12-05T02:38:01;2.40;99.90
21090;DHT22;10703;51.020;6.128;2022-12-05T02:40:45;2.40;99.90
21090;DHT22;10703;51.020;6.128;2022-12-05T02:43:22;2.40;99.90
21090;DHT22;10703;51.020;6.128;2022-12-05T02:45:53;2.40;99.90
21090;DHT22;10703;51.020;6.128;2022-12-05T02:48:22;2.40;99.90
21090;DHT22;10703;51.020;6.128;2022-12-05T02:50:52;2.30;99.90
21090;DHT22;10703;51.020;6.128;2022-12-05T02:53:23;2.30;99.90
21090;DHT22;10703;51.020;6.128;2022-12-05T02:55:50;2.30;99.90
21090;DHT22;10703;51.020;6.128;2022-12-05T02:58:24;2.20;99.90
21090;DHT22;10703;51.020;6.128;2022-12-05T03:00:55;2.20;99.90
21090;DHT22;10703;51.020;6.128;2022-12-05T03:03:24;2.20;99.90
21090;DHT22;10703;51.020;6.128;2022-12-05T03:06:08;2.20;99.90
21090;DHT22;10703;51.020;6.128;2022-12-05T03:11:22;2.20;99.90
21090;DHT22;10703;51.020;6.128;2022-12-05T03:13:55;2.20;99.90
21090;DHT22;10703;51.020;6.128;2022-12-05T03:16:43;2.20;99.90
21090;DHT22;10703;51.020;6.128;2022-12-05T03:19:34;2.20;99.90
21090;DHT22;10703;51.020;6.128;2022-12-05T03:22:07;2.10;99.90
21090;DHT22;10703;51.020;6.128;2022-12-05T03:24:36;2.20;99.90
21090;DHT22;10703;51.020;6.128;2022-12-05T03:29:57;2.20;99.90
21090;DHT22;10703;51.020;6.128;2022-12-05T03:35:35;2.20;99.90
21090;DHT22;10703;51.020;6.128;2022-12-05T03:40:52;2.20;99.90
21090;DHT22;10703;51.020;6.128;2022-12-05T03:46:22;2.10;99.90
21090;DHT22;10703;51.020;6.128;2022-12-05T03:51:18;2.10;99.90
21090;DHT22;10703;51.020;6.128;2022-12-05T03:53:52;2.00;99.90
21090;DHT22;10703;51.020;6.128;2022-12-05T03:56:24;2.00;99.90
21090;DHT22;10703;51.020;6.128;2022-12-05T03:59:05;2.00;99.90
21090;DHT22;10703;51.020;6.128;2022-12-05T04:01:34;2.10;99.90
21090;DHT22;10703;51.020;6.128;2022-12-05T04:04:11;2.00;99.90
21090;DHT22;10703;51.020;6.128;2022-12-05T04:06:40;2.10;99.90
21090;DHT22;10703;51.020;6.128;2022-12-05T04:09:19;2.00;99.90
21090;DHT22;10703;51.020;6.128;2022-12-05T04:11:58;2.00;99.90
21090;DHT22;10703;51.020;6.128;2022-12-05T04:14:53;2.00;99.90
21090;DHT22;10703;51.020;6.128;2022-12-05T04:17:56;2.00;99.90
21090;DHT22;10703;51.020;6.128;2022-12-05T04:23:13;2.00;99.90
21090;DHT22;10703;51.020;6.128;2022-12-05T04:28:35;2.00;99.90
21090;DHT22;10703;51.020;6.128;2022-12-05T04:31:23;2.00;99.90
21090;DHT22;10703;51.020;6.128;2022-12-05T04:33:57;2.00;99.90
21090;DHT22;10703;51.020;6.128;2022-12-05T04:36:39;2.00;99.90
21090;DHT22;10703;51.020;6.128;2022-12-05T04:39:11;2.00;99.90
21090;DHT22;10703;51.020;6.128;2022-12-05T04:41:56;2.00;99.90
21090;DHT22;10703;51.020;6.128;2022-12-05T04:44:31;1.90;99.90
21090;DHT22;10703;51.020;6.128;2022-12-05T04:47:02;2.00;99.90
21090;DHT22;10703;51.020;6.128;2022-12-05T04:49:30;1.90;99.90
21090;DHT22;10703;51.020;6.128;2022-12-05T04:52:02;1.90;99.90
21090;DHT22;10703;51.020;6.128;2022-12-05T04:57:21;1.60;99.90
21090;DHT22;10703;51.020;6.128;2022-12-05T04:59:49;1.50;99.90
21090;DHT22;10703;51.020;6.128;2022-12-05T05:02:26;1.50;99.90
21090;DHT22;10703;51.020;6.128;2022-12-05T05:04:57;1.40;99.90
21090;DHT22;10703;51.020;6.128;2022-12-05T05:07:25;1.40;99.90
21090;DHT22;10703;51.020;6.128;2022-12-05T05:09:52;1.30;99.90
21090;DHT22;10703;51.020;6.128;2022-12-05T05:12:18;1.30;99.90
21090;DHT22;10703;51.020;6.128;2022-12-05T05:14:45;1.20;99.90
21090;DHT22;10703;51.020;6.128;2022-12-05T05:17:12;1.20;99.90
21090;DHT22;10703;51.020;6.128;2022-12-05T05:19:38;1.10;99.90
21090;DHT22;10703;51.020;6.128;2022-12-05T05:22:05;1.10;99.90
21090;DHT22;10703;51.020;6.128;2022-12-05T05:24:32;1.10;99.90
21090;DHT22;10703;51.020;6.128;2022-12-05T05:26:58;1.00;99.90
21090;DHT22;10703;51.020;6.128;2022-12-05T05:29:25;1.00;99.90
21090;DHT22;10703;51.020;6.128;2022-12-05T05:31:52;1.00;99.90
21090;DHT22;10703;51.020;6.128;2022-12-05T05:34:18;0.90;99.90
21090;DHT22;10703;51.020;6.128;2022-12-05T05:36:50;0.90;99.90
21090;DHT22;10703;51.020;6.128;2022-12-05T05:39:16;0.80;99.90
21090;DHT22;10703;51.020;6.128;2022-12-05T05:41:43;0.80;99.90
21090;DHT22;10703;51.020;6.128;2022-12-05T05:44:10;0.80;99.90
21090;DHT22;10703;51.020;6.128;2022-12-05T05:46:37;0.70;99.90
21090;DHT22;10703;51.020;6.128;2022-12-05T05:49:04;0.70;99.90
21090;DHT22;10703;51.020;6.128;2022-12-05T05:51:31;0.70;99.90
21090;DHT22;10703;51.020;6.128;2022-12-05T05:53:58;0.70;99.90
21090;DHT22;10703;51.020;6.128;2022-12-05T05:56:26;0.70;99.90
21090;DHT22;10703;51.020;6.128;2022-12-05T05:59:01;0.70;99.90
21090;DHT22;10703;51.020;6.128;2022-12-05T06:01:29;0.70;99.90
21090;DHT22;10703;51.020;6.128;2022-12-05T06:03:57;0.70;99.90
21090;DHT22;10703;51.020;6.128;2022-12-05T06:06:24;0.60;99.90
21090;DHT22;10703;51.020;6.128;2022-12-05T06:08:50;0.60;99.90
21090;DHT22;10703;51.020;6.128;2022-12-05T06:11:19;0.60;99.90
21090;DHT22;10703;51.020;6.128;2022-12-05T06:13:56;0.60;99.90
21090;DHT22;10703;51.020;6.128;2022-12-05T06:16:26;0.60;99.90
21090;DHT22;10703;51.020;6.128;2022-12-05T06:18:53;0.60;99.90
21090;DHT22;10703;51.020;6.128;2022-12-05T06:21:21;0.60;99.90
21090;DHT22;10703;51.020;6.128;2022-12-05T06:23:48;0.50;99.90
21090;DHT22;10703;51.020;6.128;2022-12-05T06:26:17;0.50;99.90
21090;DHT22;10703;51.020;6.128;2022-12-05T06:28:44;0.60;99.90
21090;DHT22;10703;51.020;6.128;2022-12-05T06:31:16;0.50;99.90
21090;DHT22;10703;51.020;6.128;2022-12-05T06:33:43;0.60;99.90
21090;DHT22;10703;51.020;6.128;2022-12-05T06:36:15;0.50;99.90
21090;DHT22;10703;51.020;6.128;2022-12-05T06:38:42;0.50;99.90
21090;DHT22;10703;51.020;6.128;2022-12-05T06:41:11;0.50;99.90
21090;DHT22;10703;51.020;6.128;2022-12-05T06:43:39;0.60;99.90
21090;DHT22;10703;51.020;6.128;2022-12-05T06:46:07;0.60;99.90
21090;DHT22;10703;51.020;6.128;2022-12-05T06:48:34;0.60;99.90
21090;DHT22;10703;51.020;6.128;2022-12-05T06:51:01;0.60;99.90
21090;DHT22;10703;51.020;6.128;2022-12-05T06:53:27;0.60;99.90
21090;DHT22;10703;51.020;6.128;2022-12-05T06:55:59;0.60;99.90
21090;DHT22;10703;51.020;6.128;2022-12-05T06:58:26;0.60;99.90
21090;DHT22;10703;51.020;6.128;2022-12-05T07:00:53;0.60;99.90
21090;DHT22;10703;51.020;6.128;2022-12-05T07:03:39;0.60;99.90
21090;DHT22;10703;51.020;6.128;2022-12-05T07:06:07;0.60;99.90
21090;DHT22;10703;51.020;6.128;2022-12-05T07:08:34;0.60;99.90
21090;DHT22;10703;51.020;6.128;2022-12-05T07:11:02;0.60;99.90
21090;DHT22;10703;51.020;6.128;2022-12-05T07:13:28;0.60;99.90
21090;DHT22;10703;51.020;6.128;2022-12-05T07:15:55;0.60;99.90
21090;DHT22;10703;51.020;6.128;2022-12-05T07:18:25;0.50;99.90
21090;DHT22;10703;51.020;6.128;2022-12-05T07:20:59;0.60;99.90
21090;DHT22;10703;51.020;6.128;2022-12-05T07:23:38;0.60;99.90
21090;DHT22;10703;51.020;6.128;2022-12-05T07:26:06;0.60;99.90
21090;DHT22;10703;51.020;6.128;2022-12-05T07:28:34;0.60;99.90
21090;DHT22;10703;51.020;6.128;2022-12-05T07:31:05;0.60;99.90
21090;DHT22;10703;51.020;6.128;2022-12-05T07:33:32;0.60;99.90
21090;DHT22;10703;51.020;6.128;2022-12-05T07:36:04;0.60;99.90
21090;DHT22;10703;51.020;6.128;2022-12-05T07:38:31;0.60;99.90
21090;DHT22;10703;51.020;6.128;2022-12-05T07:40:58;0.60;99.90
21090;DHT22;10703;51.020;6.128;2022-12-05T07:43:24;0.60;99.90
21090;DHT22;10703;51.020;6.128;2022-12-05T07:45:51;0.60;99.90
21090;DHT22;10703;51.020;6.128;2022-12-05T07:48:18;0.60;99.90
21090;DHT22;10703;51.020;6.128;2022-12-05T07:50:45;0.60;99.90
21090;DHT22;10703;51.020;6.128;2022-12-05T07:53:12;0.60;99.90
21090;DHT22;10703;51.020;6.128;2022-12-05T07:55:38;0.60;99.90
21090;DHT22;10703;51.020;6.128;2022-12-05T07:58:05;0.60;99.90
21090;DHT22;10703;51.020;6.128;2022-12-05T08:00:32;0.70;99.90
21090;DHT22;10703;51.020;6.128;2022-12-05T08:03:00;0.70;99.90
21090;DHT22;10703;51.020;6.128;2022-12-05T08:05:28;0.70;99.90
21090;DHT22;10703;51.020;6.128;2022-12-05T08:07:55;0.70;99.90
21090;DHT22;10703;51.020;6.128;2022-12-05T08:10:22;0.70;99.90
21090;DHT22;10703;51.020;6.128;2022-12-05T08:12:48;0.70;99.90
21090;DHT22;10703;51.020;6.128;2022-12-05T08:15:15;0.80;99.90
21090;DHT22;10703;51.020;6.128;2022-12-05T08:17:41;0.80;99.90
21090;DHT22;10703;51.020;6.128;2022-12-05T08:20:09;0.80;99.90
21090;DHT22;10703;51.020;6.128;2022-12-05T08:22:35;0.80;99.90
21090;DHT22;10703;51.020;6.128;2022-12-05T08:25:02;0.80;99.90
21090;DHT22;10703;51.020;6.128;2022-12-05T08:27:29;0.80;99.90
21090;DHT22;10703;51.020;6.128;2022-12-05T08:29:55;0.90;99.90
21090;DHT22;10703;51.020;6.128;2022-12-05T08:32:23;0.90;99.90
21090;DHT22;10703;51.020;6.128;2022-12-05T08:34:49;0.90;99.90
21090;DHT22;10703;51.020;6.128;2022-12-05T08:37:16;0.90;99.90
21090;DHT22;10703;51.020;6.128;2022-12-05T08:39:43;0.90;99.90
21090;DHT22;10703;51.020;6.128;2022-12-05T08:42:09;0.90;99.90
21090;DHT22;10703;51.020;6.128;2022-12-05T08:44:36;1.00;99.90
21090;DHT22;10703;51.020;6.128;2022-12-05T08:47:02;1.00;99.90
21090;DHT22;10703;51.020;6.128;2022-12-05T08:49:29;1.00;99.90
21090;DHT22;10703;51.020;6.128;2022-12-05T08:51:56;1.10;99.90
21090;DHT22;10703;51.020;6.128;2022-12-05T08:54:22;1.10;99.90
21090;DHT22;10703;51.020;6.128;2022-12-05T08:56:50;1.10;99.90
21090;DHT22;10703;51.020;6.128;2022-12-05T08:59:17;1.20;99.90
21090;DHT22;10703;51.020;6.128;2022-12-05T09:01:44;1.20;99.90
21090;DHT22;10703;51.020;6.128;2022-12-05T09:04:11;1.30;99.90
21090;DHT22;10703;51.020;6.128;2022-12-05T09:06:38;1.30;99.90
21090;DHT22;10703;51.020;6.128;2022-12-05T09:09:08;1.40;99.90
21090;DHT22;10703;51.020;6.128;2022-12-05T09:11:40;1.40;99.90
21090;DHT22;10703;51.020;6.128;2022-12-05T09:14:12;1.50;99.90
21090;DHT22;10703;51.020;6.128;2022-12-05T09:16:39;1.50;99.90
21090;DHT22;10703;51.020;6.128;2022-12-05T09:19:12;1.50;99.90
21090;DHT22;10703;51.020;6.128;2022-12-05T09:21:41;1.60;99.90
21090;DHT22;10703;51.020;6.128;2022-12-05T09:24:10;1.60;99.90
21090;DHT22;10703;51.020;6.128;2022-12-05T09:26:37;1.60;99.90
21090;DHT22;10703;51.020;6.128;2022-12-05T09:29:04;1.60;99.90
21090;DHT22;10703;51.020;6.128;2022-12-05T09:31:30;1.70;99.90
21090;DHT22;10703;51.020;6.128;2022-12-05T09:33:57;1.70;99.90
21090;DHT22;10703;51.020;6.128;2022-12-05T09:36:27;1.70;99.90
21090;DHT22;10703;51.020;6.128;2022-12-05T09:38:57;1.80;99.90
21090;DHT22;10703;51.020;6.128;2022-12-05T09:49:56;1.80;99.90
21090;DHT22;10703;51.020;6.128;2022-12-05T09:52:36;1.80;99.90
21090;DHT22;10703;51.020;6.128;2022-12-05T09:55:14;1.90;99.90
21090;DHT22;10703;51.020;6.128;2022-12-05T09:57:47;1.80;99.90
21090;DHT22;10703;51.020;6.128;2022-12-05T10:00:15;1.80;99.90
21090;DHT22;10703;51.020;6.128;2022-12-05T10:05:56;1.90;99.90
21090;DHT22;10703;51.020;6.128;2022-12-05T10:08:50;1.90;99.90
21090;DHT22;10703;51.020;6.128;2022-12-05T10:11:27;1.90;99.90
21090;DHT22;10703;51.020;6.128;2022-12-05T10:14:07;2.00;99.90
21090;DHT22;10703;51.020;6.128;2022-12-05T10:16:39;2.00;99.90
21090;DHT22;10703;51.020;6.128;2022-12-05T10:19:18;2.00;99.90
21090;DHT22;10703;51.020;6.128;2022-12-05T10:22:03;2.00;99.90
21090;DHT22;10703;51.020;6.128;2022-12-05T10:24:39;2.00;99.90
21090;DHT22;10703;51.020;6.128;2022-12-05T10:27:09;1.90;99.90
21090;DHT22;10703;51.020;6.128;2022-12-05T10:30:31;1.90;99.90
21090;DHT22;10703;51.020;6.128;2022-12-05T10:32:59;1.90;99.90
21090;DHT22;10703;51.020;6.128;2022-12-05T10:35:43;1.90;99.90
21090;DHT22;10703;51.020;6.128;2022-12-05T10:38:22;1.90;99.90
21090;DHT22;10703;51.020;6.128;2022-12-05T10:40:53;1.90;99.90
21090;DHT22;10703;51.020;6.128;2022-12-05T10:43:26;1.90;99.90
21090;DHT22;10703;51.020;6.128;2022-12-05T10:45:53;1.90;99.90
21090;DHT22;10703;51.020;6.128;2022-12-05T10:48:21;1.90;99.90
21090;DHT22;10703;51.020;6.128;2022-12-05T10:50:51;1.90;99.90
21090;DHT22;10703;51.020;6.128;2022-12-05T10:53:27;1.80;99.90
21090;DHT22;10703;51.020;6.128;2022-12-05T10:55:54;1.90;99.90
21090;DHT22;10703;51.020;6.128;2022-12-05T10:58:56;1.80;99.90
21090;DHT22;10703;51.020;6.128;2022-12-05T11:01:25;1.80;99.90
21090;DHT22;10703;51.020;6.128;2022-12-05T11:03:58;1.80;99.90
21090;DHT22;10703;51.020;6.128;2022-12-05T11:06:30;1.80;99.90
21090;DHT22;10703;51.020;6.128;2022-12-05T11:09:03;1.80;99.90
21090;DHT22;10703;51.020;6.128;2022-12-05T11:11:32;1.80;99.90
21090;DHT22;10703;51.020;6.128;2022-12-05T11:14:05;1.80;99.90
21090;DHT22;10703;51.020;6.128;2022-12-05T11:16:34;1.90;99.90
21090;DHT22;10703;51.020;6.128;2022-12-05T11:19:24;1.90;99.90
21090;DHT22;10703;51.020;6.128;2022-12-05T11:21:52;2.00;99.90
21090;DHT22;10703;51.020;6.128;2022-12-05T11:26:48;2.00;99.90
21090;DHT22;10703;51.020;6.128;2022-12-05T11:29:36;2.10;99.90
21090;DHT22;10703;51.020;6.128;2022-12-05T11:32:07;2.00;99.90
21090;DHT22;10703;51.020;6.128;2022-12-05T11:34:52;2.00;99.90
21090;DHT22;10703;51.020;6.128;2022-12-05T11:37:47;2.00;99.90
21090;DHT22;10703;51.020;6.128;2022-12-05T11:43:11;2.00;99.90
21090;DHT22;10703;51.020;6.128;2022-12-05T11:49:12;2.10;99.90
21090;DHT22;10703;51.020;6.128;2022-12-05T12:02:24;2.00;99.90
21090;DHT22;10703;51.020;6.128;2022-12-05T12:10:06;2.00;99.90
21090;DHT22;10703;51.020;6.128;2022-12-05T12:12:55;2.00;99.90
21090;DHT22;10703;51.020;6.128;2022-12-05T12:29:49;2.20;99.90
21090;DHT22;10703;51.020;6.128;2022-12-05T12:32:52;2.20;99.90
21090;DHT22;10703;51.020;6.128;2022-12-05T12:35:30;2.20;99.90
21090;DHT22;10703;51.020;6.128;2022-12-05T12:38:20;2.10;99.90
21090;DHT22;10703;51.020;6.128;2022-12-05T12:40:54;2.10;99.90
21090;DHT22;10703;51.020;6.128;2022-12-05T12:43:42;2.10;99.90
21090;DHT22;10703;51.020;6.128;2022-12-05T12:52:22;2.00;99.90
21090;DHT22;10703;51.020;6.128;2022-12-05T12:55:14;2.00;99.90
21090;DHT22;10703;51.020;6.128;2022-12-05T12:58:05;1.90;99.90
21090;DHT22;10703;51.020;6.128;2022-12-05T13:01:08;1.90;99.90
21090;DHT22;10703;51.020;6.128;2022-12-05T13:03:43;1.80;99.90
21090;DHT22;10703;51.020;6.128;2022-12-05T13:06:25;1.80;99.90
21090;DHT22;10703;51.020;6.128;2022-12-05T13:08:57;1.70;99.90
21090;DHT22;10703;51.020;6.128;2022-12-05T13:11:28;1.70;99.90
21090;DHT22;10703;51.020;6.128;2022-12-05T13:14:00;1.70;99.90
21090;DHT22;10703;51.020;6.128;2022-12-05T13:16:31;1.70;99.90
21090;DHT22;10703;51.020;6.128;2022-12-05T13:19:00;1.60;99.90
21090;DHT22;10703;51.020;6.128;2022-12-05T13:21:27;1.60;99.90
21090;DHT22;10703;51.020;6.128;2022-12-05T13:23:56;1.60;99.90
21090;DHT22;10703;51.020;6.128;2022-12-05T13:26:30;1.60;99.90
21090;DHT22;10703;51.020;6.128;2022-12-05T13:29:02;1.60;99.90
21090;DHT22;10703;51.020;6.128;2022-12-05T13:31:41;1.60;99.90
21090;DHT22;10703;51.020;6.128;2022-12-05T13:37:09;1.70;99.90
21090;DHT22;10703;51.020;6.128;2022-12-05T13:39:56;1.70;99.90
21090;DHT22;10703;51.020;6.128;2022-12-05T13:42:42;1.70;99.90
21090;DHT22;10703;51.020;6.128;2022-12-05T13:45:15;1.60;99.90
21090;DHT22;10703;51.020;6.128;2022-12-05T13:52:54;1.50;99.90
21090;DHT22;10703;51.020;6.128;2022-12-05T13:55:55;1.40;99.90
21090;DHT22;10703;51.020;6.128;2022-12-05T14:00:50;1.40;99.90
21090;DHT22;10703;51.020;6.128;2022-12-05T14:05:52;1.30;99.90
21090;DHT22;10703;51.020;6.128;2022-12-05T14:15:53;1.40;99.90
21090;DHT22;10703;51.020;6.128;2022-12-05T14:21:13;1.40;99.90
21090;DHT22;10703;51.020;6.128;2022-12-05T14:24:05;1.30;99.90
21090;DHT22;10703;51.020;6.128;2022-12-05T14:29:37;1.30;99.90
21090;DHT22;10703;51.020;6.128;2022-12-05T14:37:34;1.30;99.90
21090;DHT22;10703;51.020;6.128;2022-12-05T14:42:49;1.20;99.90
21090;DHT22;10703;51.020;6.128;2022-12-05T14:45:39;1.20;99.90
21090;DHT22;10703;51.020;6.128;2022-12-05T14:50:42;1.10;99.90
21090;DHT22;10703;51.020;6.128;2022-12-05T14:55:44;1.10;99.90
21090;DHT22;10703;51.020;6.128;2022-12-05T15:01:26;1.10;99.90
21090;DHT22;10703;51.020;6.128;2022-12-05T15:06:58;1.10;99.90
21090;DHT22;10703;51.020;6.128;2022-12-05T15:17:59;1.00;99.90
21090;DHT22;10703;51.020;6.128;2022-12-05T15:20:43;0.90;99.90
21090;DHT22;10703;51.020;6.128;2022-12-05T15:26:24;0.90;99.90
21090;DHT22;10703;51.020;6.128;2022-12-05T15:32:24;0.80;99.90
21090;DHT22;10703;51.020;6.128;2022-12-05T15:35:01;0.80;99.90
21090;DHT22;10703;51.020;6.128;2022-12-05T15:37:53;0.70;99.90
21090;DHT22;10703;51.020;6.128;2022-12-05T15:40:22;0.70;99.90
21090;DHT22;10703;51.020;6.128;2022-12-05T15:42:55;0.70;99.90
21090;DHT22;10703;51.020;6.128;2022-12-05T15:45:28;0.70;99.90
21090;DHT22;10703;51.020;6.128;2022-12-05T15:50:42;0.70;99.90
21090;DHT22;10703;51.020;6.128;2022-12-05T15:53:17;0.70;99.90
21090;DHT22;10703;51.020;6.128;2022-12-05T15:58:23;0.70;99.90
21090;DHT22;10703;51.020;6.128;2022-12-05T16:01:02;0.70;99.90
21090;DHT22;10703;51.020;6.128;2022-12-05T16:03:52;0.70;99.90
21090;DHT22;10703;51.020;6.128;2022-12-05T16:09:16;0.70;99.90
21090;DHT22;10703;51.020;6.128;2022-12-05T16:12:26;0.70;99.90
21090;DHT22;10703;51.020;6.128;2022-12-05T16:17:41;0.70;99.90
21090;DHT22;10703;51.020;6.128;2022-12-05T16:22:48;0.60;99.90
21090;DHT22;10703;51.020;6.128;2022-12-05T16:25:18;0.60;99.90
21090;DHT22;10703;51.020;6.128;2022-12-05T16:28:01;0.60;99.90
21090;DHT22;10703;51.020;6.128;2022-12-05T16:30:29;0.60;99.90
21090;DHT22;10703;51.020;6.128;2022-12-05T16:33:13;0.60;99.90
21090;DHT22;10703;51.020;6.128;2022-12-05T16:35:45;0.60;99.90
21090;DHT22;10703;51.020;6.128;2022-12-05T16:48:43;0.60;99.90
21090;DHT22;10703;51.020;6.128;2022-12-05T16:53:37;0.60;99.90
21090;DHT22;10703;51.020;6.128;2022-12-05T16:56:06;0.60;99.90
21090;DHT22;10703;51.020;6.128;2022-12-05T16:58:36;0.60;99.90
21090;DHT22;10703;51.020;6.128;2022-12-05T17:01:05;0.60;99.90
21090;DHT22;10703;51.020;6.128;2022-12-05T17:03:32;0.60;99.90
21090;DHT22;10703;51.020;6.128;2022-12-05T17:06:01;0.60;99.90
21090;DHT22;10703;51.020;6.128;2022-12-05T17:08:28;0.60;99.90
21090;DHT22;10703;51.020;6.128;2022-12-05T17:10:55;0.60;99.90
21090;DHT22;10703;51.020;6.128;2022-12-05T17:13:22;0.70;99.90
21090;DHT22;10703;51.020;6.128;2022-12-05T17:15:49;0.60;99.90
21090;DHT22;10703;51.020;6.128;2022-12-05T17:18:19;0.70;99.90
21090;DHT22;10703;51.020;6.128;2022-12-05T17:20:49;0.70;99.90
21090;DHT22;10703;51.020;6.128;2022-12-05T17:23:17;0.70;99.90
21090;DHT22;10703;51.020;6.128;2022-12-05T17:25:53;0.70;99.90
21090;DHT22;10703;51.020;6.128;2022-12-05T17:28:20;0.70;99.90
21090;DHT22;10703;51.020;6.128;2022-12-05T17:30:47;0.60;99.90
21090;DHT22;10703;51.020;6.128;2022-12-05T17:33:16;0.70;99.90
21090;DHT22;10703;51.020;6.128;2022-12-05T17:35:43;0.70;99.90
21090;DHT22;10703;51.020;6.128;2022-12-05T17:38:10;0.70;99.90
21090;DHT22;10703;51.020;6.128;2022-12-05T17:40:37;0.70;99.90
21090;DHT22;10703;51.020;6.128;2022-12-05T17:43:04;0.70;99.90
21090;DHT22;10703;51.020;6.128;2022-12-05T17:45:31;0.70;99.90
21090;DHT22;10703;51.020;6.128;2022-12-05T17:47:59;0.70;99.90
21090;DHT22;10703;51.020;6.128;2022-12-05T17:50:25;0.70;99.90
21090;DHT22;10703;51.020;6.128;2022-12-05T17:52:55;0.70;99.90
21090;DHT22;10703;51.020;6.128;2022-12-05T17:55:24;0.70;99.90
21090;DHT22;10703;51.020;6.128;2022-12-05T17:57:52;0.80;99.90
21090;DHT22;10703;51.020;6.128;2022-12-05T18:00:20;0.70;99.90
21090;DHT22;10703;51.020;6.128;2022-12-05T18:02:47;0.70;99.90
21090;DHT22;10703;51.020;6.128;2022-12-05T18:05:15;0.70;99.90
21090;DHT22;10703;51.020;6.128;2022-12-05T18:07:43;0.70;99.90
21090;DHT22;10703;51.020;6.128;2022-12-05T18:10:16;0.70;99.90
21090;DHT22;10703;51.020;6.128;2022-12-05T18:12:45;0.70;99.90
21090;DHT22;10703;51.020;6.128;2022-12-05T18:15:12;0.70;99.90
21090;DHT22;10703;51.020;6.128;2022-12-05T18:17:39;0.70;99.90
21090;DHT22;10703;51.020;6.128;2022-12-05T18:20:09;0.80;99.90
21090;DHT22;10703;51.020;6.128;2022-12-05T18:22:36;0.80;99.90
21090;DHT22;10703;51.020;6.128;2022-12-05T18:25:04;0.80;99.90
21090;DHT22;10703;51.020;6.128;2022-12-05T18:27:32;0.80;99.90
21090;DHT22;10703;51.020;6.128;2022-12-05T18:30:00;0.70;99.90
21090;DHT22;10703;51.020;6.128;2022-12-05T18:32:26;0.80;99.90
21090;DHT22;10703;51.020;6.128;2022-12-05T18:34:53;0.70;99.90
21090;DHT22;10703;51.020;6.128;2022-12-05T18:37:20;0.80;99.90
21090;DHT22;10703;51.020;6.128;2022-12-05T18:39:48;0.80;99.90
21090;DHT22;10703;51.020;6.128;2022-12-05T18:42:14;0.80;99.90
21090;DHT22;10703;51.020;6.128;2022-12-05T18:45:04;0.80;99.90
21090;DHT22;10703;51.020;6.128;2022-12-05T18:47:31;0.80;99.90
21090;DHT22;10703;51.020;6.128;2022-12-05T18:49:57;0.80;99.90
21090;DHT22;10703;51.020;6.128;2022-12-05T18:52:25;0.80;99.90
21090;DHT22;10703;51.020;6.128;2022-12-05T18:54:52;0.80;99.90
21090;DHT22;10703;51.020;6.128;2022-12-05T18:57:38;0.80;99.90
21090;DHT22;10703;51.020;6.128;2022-12-05T19:00:05;0.80;99.90
21090;DHT22;10703;51.020;6.128;2022-12-05T19:02:32;0.80;99.90
21090;DHT22;10703;51.020;6.128;2022-12-05T19:05:00;0.80;99.90
21090;DHT22;10703;51.020;6.128;2022-12-05T19:07:27;0.80;99.90
21090;DHT22;10703;51.020;6.128;2022-12-05T19:09:53;0.80;99.90
21090;DHT22;10703;51.020;6.128;2022-12-05T19:12:20;0.80;99.90
21090;DHT22;10703;51.020;6.128;2022-12-05T19:14:47;0.90;99.90
21090;DHT22;10703;51.020;6.128;2022-12-05T19:17:13;0.90;99.90